Time;durP1;ratioP1;P1;durP2;ratioP2;P2;SDS_P1;SDS_P2;PMS_P1;PMS_P2;Temp;Humidity;BMP_temperature;BMP_pressure;BME280_temperature;BME280_humidity;BME280_pressure;Samples;Min_cycle;Max_cycle;Signal;HPM_P1;HPM_P2
2022/03/08 00:01:26;;;;;;;9.07;6.18;;;;;;;;;;5011367;28;20565;-49
2022/03/08 00:03:54;;;;;;;8.25;5.40;;;;;;;;;;5011227;28;20557;-49
2022/03/08 00:06:20;;;;;;;15.00;5.70;;;;;;;;;;5011759;28;20204;-48
2022/03/08 00:08:46;;;;;;;8.40;5.68;;;;;;;;;;5011705;28;20164;-49
2022/03/08 00:11:13;;;;;;;6.60;4.83;;;;;;;;;;5011238;28;20334;-48
2022/03/08 00:13:39;;;;;;;5.82;4.85;;;;;;;;;;5014281;28;20407;-48
2022/03/08 00:16:06;;;;;;;8.57;6.10;;;;;;;;;;5015147;28;20201;-49
2022/03/08 00:18:32;;;;;;;8.10;5.20;;;;;;;;;;5015075;28;20634;-49
2022/03/08 00:20:58;;;;;;;9.80;6.10;;;;;;;;;;5015029;28;20202;-48
2022/03/08 00:23:24;;;;;;;6.55;5.80;;;;;;;;;;5014971;28;20426;-48
2022/03/08 00:25:50;;;;;;;7.70;5.70;;;;;;;;;;5015004;28;20636;-48
2022/03/08 00:28:16;;;;;;;7.03;5.30;;;;;;;;;;5014862;28;20482;-48
2022/03/08 00:30:42;;;;;;;6.10;4.90;;;;;;;;;;5014585;28;20426;-49
2022/03/08 00:33:08;;;;;;;6.40;4.97;;;;;;;;;;5015090;28;20446;-49
2022/03/08 00:35:34;;;;;;;11.00;6.20;;;;;;;;;;5015297;28;20442;-49
2022/03/08 00:38:00;;;;;;;8.25;5.63;;;;;;;;;;5014682;28;20411;-49
2022/03/08 00:40:26;;;;;;;6.50;5.28;;;;;;;;;;5014457;28;20279;-49
2022/03/08 00:42:53;;;;;;;7.75;5.82;;;;;;;;;;5014551;28;20234;-47
2022/03/08 00:45:19;;;;;;;6.45;5.45;;;;;;;;;;5014609;28;20613;-48
2022/03/08 00:47:45;;;;;;;5.43;4.90;;;;;;;;;;5014352;28;20250;-48
2022/03/08 00:50:14;;;;;;;8.30;6.22;;;;;;;;;;5014238;28;20188;-50
2022/03/08 00:52:40;;;;;;;7.47;5.47;;;;;;;;;;5014361;28;20243;-50
2022/03/08 00:55:07;;;;;;;9.48;6.15;;;;;;;;;;5014348;28;20177;-49
2022/03/08 00:57:33;;;;;;;7.28;5.60;;;;;;;;;;5014381;28;20648;-49
2022/03/08 00:59:59;;;;;;;6.17;5.27;;;;;;;;;;5013971;28;20188;-49
2022/03/08 01:02:25;;;;;;;8.10;5.63;;;;;;;;;;5014038;28;20926;-49
2022/03/08 01:04:51;;;;;;;8.98;5.60;;;;;;;;;;5014228;28;20818;-50
2022/03/08 01:07:18;;;;;;;8.50;5.37;;;;;;;;;;5014212;28;20210;-49
2022/03/08 01:09:44;;;;;;;6.50;5.53;;;;;;;;;;5013872;28;20411;-49
2022/03/08 01:12:10;;;;;;;7.07;5.70;;;;;;;;;;5014055;28;20175;-48
2022/03/08 01:14:36;;;;;;;13.20;5.80;;;;;;;;;;5013946;28;20426;-48
2022/03/08 01:17:02;;;;;;;7.45;5.75;;;;;;;;;;5013854;28;20539;-49
2022/03/08 01:19:28;;;;;;;7.95;6.35;;;;;;;;;;4996302;28;20168;-47
2022/03/08 01:21:54;;;;;;;8.63;5.97;;;;;;;;;;5013720;28;20672;-49
2022/03/08 01:24:20;;;;;;;10.67;6.07;;;;;;;;;;5012912;28;20802;-50
2022/03/08 01:26:47;;;;;;;10.57;6.27;;;;;;;;;;5013075;28;20467;-46
2022/03/08 01:29:13;;;;;;;10.15;6.20;;;;;;;;;;5013283;28;20446;-46
2022/03/08 01:31:41;;;;;;;8.47;5.87;;;;;;;;;;5013679;28;20571;-47
2022/03/08 01:34:06;;;;;;;9.68;7.05;;;;;;;;;;5013790;28;20457;-46
2022/03/08 01:36:32;;;;;;;8.37;5.60;;;;;;;;;;5013642;28;20180;-46
2022/03/08 01:38:58;;;;;;;10.00;6.80;;;;;;;;;;5013626;28;20407;-46
2022/03/08 01:41:24;;;;;;;8.80;6.70;;;;;;;;;;5013277;28;20924;-46
2022/03/08 01:43:50;;;;;;;8.40;5.82;;;;;;;;;;5013462;28;20403;-46
2022/03/08 01:46:17;;;;;;;6.18;5.22;;;;;;;;;;5013408;28;20624;-47
2022/03/08 01:48:43;;;;;;;9.00;6.28;;;;;;;;;;5013681;28;20219;-47
2022/03/08 01:51:12;;;;;;;6.82;5.80;;;;;;;;;;5013117;28;20184;-46
2022/03/08 01:53:38;;;;;;;8.93;5.60;;;;;;;;;;5013231;28;20699;-46
2022/03/08 01:56:05;;;;;;;7.85;6.15;;;;;;;;;;5013319;28;20168;-46
2022/03/08 01:58:31;;;;;;;7.72;6.00;;;;;;;;;;5013240;28;20168;-46
2022/03/08 02:00:56;;;;;;;8.93;6.87;;;;;;;;;;5012661;28;20185;-46
2022/03/08 02:03:22;;;;;;;6.90;6.10;;;;;;;;;;5012603;28;20443;-46
2022/03/08 02:05:48;;;;;;;9.10;6.03;;;;;;;;;;5012390;28;20961;-47
2022/03/08 02:08:16;;;;;;;9.80;6.40;;;;;;;;;;5012924;28;20491;-49
2022/03/08 02:10:42;;;;;;;8.07;6.20;;;;;;;;;;5012940;28;20552;-46
2022/03/08 02:13:08;;;;;;;8.13;5.90;;;;;;;;;;5012894;28;20160;-46
2022/03/08 02:15:34;;;;;;;11.87;7.40;;;;;;;;;;5012928;28;20923;-46
2022/03/08 02:18:00;;;;;;;10.27;6.27;;;;;;;;;;5012956;28;20403;-47
2022/03/08 02:20:27;;;;;;;8.68;6.50;;;;;;;;;;5012566;28;20517;-46
2022/03/08 02:22:53;;;;;;;9.77;6.60;;;;;;;;;;5012793;28;20172;-47
2022/03/08 02:25:20;;;;;;;10.85;6.82;;;;;;;;;;5012858;28;20180;-47
2022/03/08 02:27:47;;;;;;;7.75;5.80;;;;;;;;;;5012784;28;20554;-47
2022/03/08 02:30:15;;;;;;;9.27;5.85;;;;;;;;;;5012436;28;20862;-46
2022/03/08 02:32:41;;;;;;;7.47;5.95;;;;;;;;;;5012689;28;20612;-47
2022/03/08 02:35:08;;;;;;;6.32;5.45;;;;;;;;;;5012560;28;20640;-47
2022/03/08 02:37:38;;;;;;;7.57;5.80;;;;;;;;;;5012658;28;20251;-46
2022/03/08 02:40:06;;;;;;;6.97;5.68;;;;;;;;;;5012262;28;20727;-46
2022/03/08 02:42:32;;;;;;;10.60;7.00;;;;;;;;;;5012596;28;20180;-46
2022/03/08 02:44:58;;;;;;;8.83;5.90;;;;;;;;;;5012507;28;20640;-47
2022/03/08 02:47:24;;;;;;;7.30;6.43;;;;;;;;;;5012401;28;20456;-47
2022/03/08 02:49:50;;;;;;;7.93;5.83;;;;;;;;;;5012072;28;20423;-47
2022/03/08 02:52:16;;;;;;;9.20;5.87;;;;;;;;;;5012303;28;20769;-50
2022/03/08 02:54:42;;;;;;;14.97;7.17;;;;;;;;;;5012313;28;20462;-46
2022/03/08 02:57:08;;;;;;;8.20;6.50;;;;;;;;;;5012411;28;20461;-46
2022/03/08 02:59:34;;;;;;;7.93;5.90;;;;;;;;;;5011977;28;20794;-46
2022/03/08 03:02:02;;;;;;;9.60;6.68;;;;;;;;;;5010888;28;20827;-46
2022/03/08 03:04:28;;;;;;;9.30;6.43;;;;;;;;;;5012264;28;20180;-47
2022/03/08 03:06:54;;;;;;;16.93;6.40;;;;;;;;;;5012212;28;20200;-47
2022/03/08 03:09:19;;;;;;;8.80;6.43;;;;;;;;;;5011980;28;20406;-50
2022/03/08 03:11:45;;;;;;;9.33;6.40;;;;;;;;;;5011995;28;20419;-47
2022/03/08 03:14:11;;;;;;;10.83;6.43;;;;;;;;;;5012159;28;20494;-47
2022/03/08 03:16:38;;;;;;;8.20;5.90;;;;;;;;;;5012152;28;20408;-47
2022/03/08 03:19:04;;;;;;;7.38;5.97;;;;;;;;;;5012027;28;21080;-46
2022/03/08 03:21:30;;;;;;;8.02;5.65;;;;;;;;;;5011855;28;20192;-46
2022/03/08 03:23:57;;;;;;;7.93;5.95;;;;;;;;;;5011854;28;20552;-46
2022/03/08 03:26:23;;;;;;;9.85;6.60;;;;;;;;;;5011970;28;20179;-46
2022/03/08 03:28:49;;;;;;;9.85;7.38;;;;;;;;;;5012019;28;20165;-46
2022/03/08 03:31:15;;;;;;;11.70;6.87;;;;;;;;;;5011734;28;20235;-46
2022/03/08 03:33:41;;;;;;;11.27;7.83;;;;;;;;;;5011847;28;20407;-46
2022/03/08 03:36:07;;;;;;;11.47;7.90;;;;;;;;;;5011983;28;20478;-46
2022/03/08 03:38:33;;;;;;;18.40;10.07;;;;;;;;;;5011956;28;20969;-46
2022/03/08 03:40:59;;;;;;;11.00;7.90;;;;;;;;;;5011544;28;20506;-46
2022/03/08 03:43:25;;;;;;;11.03;7.40;;;;;;;;;;5011814;28;20454;-49
2022/03/08 03:45:51;;;;;;;12.52;8.43;;;;;;;;;;5011924;28;20816;-49
2022/03/08 03:48:17;;;;;;;7.97;7.17;;;;;;;;;;5014133;28;20210;-46
2022/03/08 03:50:43;;;;;;;9.30;6.50;;;;;;;;;;5015555;28;20994;-47
2022/03/08 03:53:09;;;;;;;10.20;6.90;;;;;;;;;;5015523;28;20437;-47
2022/03/08 03:55:35;;;;;;;10.13;7.10;;;;;;;;;;5015640;28;20418;-46
2022/03/08 03:58:02;;;;;;;8.40;6.53;;;;;;;;;;5015548;28;20419;-47
2022/03/08 04:00:28;;;;;;;9.80;6.68;;;;;;;;;;5015313;28;20191;-47
2022/03/08 04:02:54;;;;;;;8.30;6.20;;;;;;;;;;5015207;28;20184;-46
2022/03/08 04:05:20;;;;;;;11.38;6.95;;;;;;;;;;5015389;28;20428;-46
2022/03/08 04:07:46;;;;;;;8.63;6.20;;;;;;;;;;5015339;28;20197;-47
2022/03/08 04:10:13;;;;;;;9.15;7.15;;;;;;;;;;5015085;28;20337;-47
2022/03/08 04:12:39;;;;;;;9.00;6.00;;;;;;;;;;5015264;28;20219;-46
2022/03/08 04:15:05;;;;;;;10.15;6.10;;;;;;;;;;5015290;28;20176;-46
2022/03/08 04:17:31;;;;;;;8.82;6.50;;;;;;;;;;5015196;28;20247;-46
2022/03/08 04:19:57;;;;;;;10.67;6.80;;;;;;;;;;5014822;28;20303;-46
2022/03/08 04:22:23;;;;;;;9.03;6.70;;;;;;;;;;5015164;28;20419;-47
2022/03/08 04:24:51;;;;;;;9.90;6.60;;;;;;;;;;5015034;28;20403;-47
2022/03/08 04:27:17;;;;;;;11.85;5.88;;;;;;;;;;4997720;28;21036;-48
2022/03/08 04:29:43;;;;;;;12.33;7.43;;;;;;;;;;5014896;28;20172;-47
2022/03/08 04:32:09;;;;;;;16.38;6.93;;;;;;;;;;5014904;28;20395;-47
2022/03/08 04:34:35;;;;;;;8.40;7.60;;;;;;;;;;5015002;28;20648;-46
2022/03/08 04:37:01;;;;;;;8.13;6.50;;;;;;;;;;5014831;28;20449;-46
2022/03/08 04:39:27;;;;;;;11.00;7.60;;;;;;;;;;5014636;28;20414;-46
2022/03/08 04:41:53;;;;;;;12.50;7.07;;;;;;;;;;5014796;28;20465;-46
2022/03/08 04:44:19;;;;;;;14.10;7.50;;;;;;;;;;5014681;28;20433;-48
2022/03/08 04:46:45;;;;;;;11.10;6.80;;;;;;;;;;5014608;28;20459;-49
2022/03/08 04:49:10;;;;;;;10.10;6.73;;;;;;;;;;5014782;28;20172;-49
2022/03/08 04:51:36;;;;;;;9.13;7.40;;;;;;;;;;5014504;28;20422;-47
2022/03/08 04:54:02;;;;;;;8.97;6.60;;;;;;;;;;5014637;28;20747;-47
2022/03/08 04:56:28;;;;;;;9.63;6.03;;;;;;;;;;5014544;28;20450;-47
2022/03/08 04:58:56;;;;;;;8.87;6.93;;;;;;;;;;5013353;28;20487;-47
2022/03/08 05:01:22;;;;;;;10.52;7.15;;;;;;;;;;5014203;28;21285;-50
2022/03/08 05:03:49;;;;;;;10.65;6.78;;;;;;;;;;5014090;28;20194;-46
2022/03/08 05:06:15;;;;;;;9.27;7.10;;;;;;;;;;5014347;28;20172;-47
2022/03/08 05:08:41;;;;;;;8.45;6.90;;;;;;;;;;5014496;28;20173;-48
2022/03/08 05:11:07;;;;;;;12.20;7.53;;;;;;;;;;5014208;28;20192;-47
2022/03/08 05:13:33;;;;;;;9.02;7.00;;;;;;;;;;5014172;28;20461;-48
2022/03/08 05:15:59;;;;;;;11.43;7.60;;;;;;;;;;5014198;28;20176;-46
2022/03/08 05:18:25;;;;;;;10.50;7.43;;;;;;;;;;5014025;28;20406;-47
2022/03/08 05:20:51;;;;;;;8.83;6.50;;;;;;;;;;5013888;28;20196;-47
2022/03/08 05:23:17;;;;;;;9.97;7.90;;;;;;;;;;5013925;28;20408;-46
2022/03/08 05:25:43;;;;;;;10.02;7.35;;;;;;;;;;5014249;28;20785;-47
2022/03/08 05:28:09;;;;;;;9.23;6.50;;;;;;;;;;5014170;28;20192;-47
2022/03/08 05:30:35;;;;;;;8.18;6.55;;;;;;;;;;5014774;28;20430;-49
2022/03/08 05:33:01;;;;;;;12.17;6.67;;;;;;;;;;5012662;28;20632;-49
2022/03/08 05:35:28;;;;;;;21.27;8.00;;;;;;;;;;5013314;28;20460;-49
2022/03/08 05:37:54;;;;;;;10.07;7.05;;;;;;;;;;5013736;28;20483;-49
2022/03/08 05:40:20;;;;;;;11.27;7.30;;;;;;;;;;5013391;28;20279;-49
2022/03/08 05:42:46;;;;;;;13.07;6.95;;;;;;;;;;5013578;28;20439;-48
2022/03/08 05:45:12;;;;;;;10.50;7.07;;;;;;;;;;5013575;28;20227;-48
2022/03/08 05:47:39;;;;;;;14.52;7.50;;;;;;;;;;5013422;28;20457;-48
2022/03/08 05:50:06;;;;;;;16.30;7.97;;;;;;;;;;5013147;28;20184;-49
2022/03/08 05:52:32;;;;;;;11.70;7.70;;;;;;;;;;5013517;28;20187;-48
2022/03/08 05:54:58;;;;;;;8.90;6.90;;;;;;;;;;5013386;28;20251;-49
2022/03/08 05:57:24;;;;;;;11.00;7.27;;;;;;;;;;5013346;28;20251;-48
2022/03/08 05:59:50;;;;;;;7.30;6.60;;;;;;;;;;5012960;28;20427;-48
2022/03/08 06:02:16;;;;;;;11.48;7.82;;;;;;;;;;5012977;28;20839;-50
2022/03/08 06:04:42;;;;;;;14.02;7.25;;;;;;;;;;5012007;28;20211;-48
2022/03/08 06:07:08;;;;;;;11.30;7.20;;;;;;;;;;5013089;28;20231;-49
2022/03/08 06:09:34;;;;;;;11.23;6.90;;;;;;;;;;5012802;28;20251;-49
2022/03/08 06:12:01;;;;;;;10.93;7.00;;;;;;;;;;5012702;28;20442;-48
2022/03/08 06:14:27;;;;;;;15.00;8.38;;;;;;;;;;5012920;28;20488;-49
2022/03/08 06:16:53;;;;;;;10.55;7.68;;;;;;;;;;5012812;28;20591;-48
2022/03/08 06:19:19;;;;;;;13.88;7.40;;;;;;;;;;5012740;28;20176;-48
2022/03/08 06:21:45;;;;;;;15.43;7.30;;;;;;;;;;5012673;28;20238;-48
2022/03/08 06:24:12;;;;;;;13.40;7.63;;;;;;;;;;5012829;28;20180;-48
2022/03/08 06:26:38;;;;;;;11.45;7.78;;;;;;;;;;5012718;28;20218;-48
2022/03/08 06:29:04;;;;;;;8.20;7.00;;;;;;;;;;5012613;28;20176;-49
2022/03/08 06:31:30;;;;;;;9.35;7.93;;;;;;;;;;5012438;28;20188;-49
2022/03/08 06:33:56;;;;;;;12.17;8.17;;;;;;;;;;5012765;28;20739;-49
2022/03/08 06:36:22;;;;;;;12.43;8.30;;;;;;;;;;5013127;28;20409;-50
2022/03/08 06:38:48;;;;;;;8.13;6.67;;;;;;;;;;5012525;28;20494;-50
2022/03/08 06:41:14;;;;;;;10.70;6.83;;;;;;;;;;5012250;28;20428;-49
2022/03/08 06:43:40;;;;;;;12.57;8.13;;;;;;;;;;5012401;28;20399;-49
2022/03/08 06:46:06;;;;;;;9.27;6.80;;;;;;;;;;5012391;28;20172;-50
2022/03/08 06:48:32;;;;;;;9.55;7.38;;;;;;;;;;5012612;28;20271;-51
2022/03/08 06:50:58;;;;;;;10.30;8.38;;;;;;;;;;5012020;28;20187;-52
2022/03/08 06:53:33;;;;;;;16.65;8.20;;;;;;;;;;5012078;28;20176;-50
2022/03/08 06:55:59;;;;;;;11.30;7.25;;;;;;;;;;5012279;28;20530;-51
2022/03/08 06:58:29;;;;;;;12.07;8.57;;;;;;;;;;5012146;28;20586;-50
2022/03/08 07:00:55;;;;;;;13.75;6.90;;;;;;;;;;5011633;28;20598;-50
2022/03/08 07:03:21;;;;;;;9.90;6.70;;;;;;;;;;5012087;28;20180;-51
2022/03/08 07:05:47;;;;;;;11.57;7.77;;;;;;;;;;5012165;28;20641;-52
2022/03/08 07:08:13;;;;;;;8.53;7.07;;;;;;;;;;5011975;28;20564;-51
2022/03/08 07:10:39;;;;;;;15.33;6.97;;;;;;;;;;5011838;28;20420;-52
2022/03/08 07:13:05;;;;;;;11.93;7.43;;;;;;;;;;5011909;28;20805;-52
2022/03/08 07:15:32;;;;;;;9.20;7.30;;;;;;;;;;5011990;28;20430;-52
2022/03/08 07:17:58;;;;;;;9.33;7.00;;;;;;;;;;5012015;28;20403;-50
2022/03/08 07:20:25;;;;;;;9.07;7.80;;;;;;;;;;5011643;28;20427;-50
2022/03/08 07:22:51;;;;;;;12.23;7.17;;;;;;;;;;5011271;28;20496;-51
2022/03/08 07:25:16;;;;;;;9.60;6.63;;;;;;;;;;5011850;28;20406;-51
2022/03/08 07:27:42;;;;;;;14.17;7.33;;;;;;;;;;5011700;28;20455;-50
2022/03/08 07:30:09;;;;;;;8.43;6.67;;;;;;;;;;5011766;28;20423;-52
2022/03/08 07:32:35;;;;;;;12.37;7.20;;;;;;;;;;5011794;28;20427;-52
2022/03/08 07:35:01;;;;;;;8.13;6.80;;;;;;;;;;5011968;28;20438;-51
2022/03/08 07:37:27;;;;;;;8.63;6.43;;;;;;;;;;5012177;28;20820;-52
2022/03/08 07:39:54;;;;;;;10.33;6.70;;;;;;;;;;5011549;28;20451;-50
2022/03/08 07:42:20;;;;;;;8.20;5.87;;;;;;;;;;5011709;28;20403;-52
2022/03/08 07:44:46;;;;;;;7.30;6.00;;;;;;;;;;5011877;28;20418;-52
2022/03/08 07:47:12;;;;;;;11.90;6.87;;;;;;;;;;5011784;28;20464;-52
2022/03/08 07:49:38;;;;;;;12.70;6.60;;;;;;;;;;5011570;28;20403;-52
2022/03/08 07:52:04;;;;;;;7.73;6.20;;;;;;;;;;5011847;28;20850;-52
2022/03/08 07:54:30;;;;;;;14.33;6.97;;;;;;;;;;5011786;28;20415;-52
2022/03/08 07:56:56;;;;;;;7.00;6.07;;;;;;;;;;5011527;28;20410;-52
2022/03/08 07:59:23;;;;;;;7.63;6.87;;;;;;;;;;5011453;28;20549;-49
2022/03/08 08:01:49;;;;;;;8.27;7.20;;;;;;;;;;5011526;28;20439;-52
2022/03/08 08:04:15;;;;;;;8.00;6.00;;;;;;;;;;5011928;28;20414;-51
2022/03/08 08:06:41;;;;;;;11.67;6.80;;;;;;;;;;5011617;28;20537;-50
2022/03/08 08:09:07;;;;;;;7.17;6.47;;;;;;;;;;5011697;28;20501;-52
2022/03/08 08:11:33;;;;;;;8.27;6.60;;;;;;;;;;5010809;28;20400;-52
2022/03/08 08:13:59;;;;;;;11.50;7.10;;;;;;;;;;5011117;28;20409;-51
2022/03/08 08:16:25;;;;;;;9.03;7.13;;;;;;;;;;5011084;28;20496;-52
2022/03/08 08:18:51;;;;;;;7.77;6.73;;;;;;;;;;5011290;28;20407;-51
2022/03/08 08:21:17;;;;;;;7.90;6.77;;;;;;;;;;5011319;28;20810;-51
2022/03/08 08:23:43;;;;;;;6.77;6.10;;;;;;;;;;5011309;28;20490;-52
2022/03/08 08:26:09;;;;;;;11.80;6.50;;;;;;;;;;5011184;28;20403;-52
2022/03/08 08:28:35;;;;;;;12.20;6.40;;;;;;;;;;5011267;28;20455;-49
2022/03/08 08:31:01;;;;;;;7.80;6.50;;;;;;;;;;5011050;28;20801;-52
2022/03/08 08:33:27;;;;;;;9.77;6.00;;;;;;;;;;5012090;28;20439;-52
2022/03/08 08:35:52;;;;;;;9.07;6.40;;;;;;;;;;5014854;28;20411;-51
2022/03/08 08:38:18;;;;;;;9.00;6.60;;;;;;;;;;5014699;28;20415;-52
2022/03/08 08:40:44;;;;;;;10.53;7.00;;;;;;;;;;5014353;28;20426;-51
2022/03/08 08:43:10;;;;;;;7.67;6.20;;;;;;;;;;5014462;28;20445;-52
2022/03/08 08:45:37;;;;;;;9.60;6.07;;;;;;;;;;5014699;28;20399;-50
2022/03/08 08:48:04;;;;;;;6.27;5.67;;;;;;;;;;5014555;28;20462;-51
2022/03/08 08:50:30;;;;;;;6.97;5.50;;;;;;;;;;5014257;28;20953;-51
2022/03/08 08:52:56;;;;;;;7.27;6.57;;;;;;;;;;5014534;28;20855;-50
2022/03/08 08:55:22;;;;;;;6.70;5.47;;;;;;;;;;5014342;28;20962;-51
2022/03/08 08:57:48;;;;;;;7.77;6.87;;;;;;;;;;5014403;28;20752;-52
2022/03/08 09:00:14;;;;;;;7.90;6.37;;;;;;;;;;5014119;28;20430;-51
2022/03/08 09:02:42;;;;;;;7.53;6.17;;;;;;;;;;5014344;28;20434;-51
2022/03/08 09:05:08;;;;;;;8.17;6.50;;;;;;;;;;5014385;28;20411;-50
2022/03/08 09:07:34;;;;;;;9.20;7.30;;;;;;;;;;5014155;28;20443;-50
2022/03/08 09:10:00;;;;;;;6.10;5.50;;;;;;;;;;5013945;28;20432;-50
2022/03/08 09:12:26;;;;;;;7.23;5.77;;;;;;;;;;5014157;28;20621;-52
2022/03/08 09:14:52;;;;;;;8.17;5.87;;;;;;;;;;5014203;28;20777;-52
2022/03/08 09:17:18;;;;;;;6.23;5.70;;;;;;;;;;5014216;28;20403;-52
2022/03/08 09:19:44;;;;;;;6.73;6.03;;;;;;;;;;5013899;28;20386;-51
2022/03/08 09:22:10;;;;;;;5.93;5.10;;;;;;;;;;5013947;28;20413;-51
2022/03/08 09:24:37;;;;;;;6.50;5.83;;;;;;;;;;5014075;28;20378;-51
2022/03/08 09:27:03;;;;;;;10.13;6.00;;;;;;;;;;5014043;28;20452;-52
2022/03/08 09:29:29;;;;;;;5.97;5.37;;;;;;;;;;5013670;28;20413;-53
2022/03/08 09:31:55;;;;;;;5.77;5.23;;;;;;;;;;5013974;28;20374;-52
2022/03/08 09:34:21;;;;;;;10.53;4.97;;;;;;;;;;5013793;28;20380;-52
2022/03/08 09:36:47;;;;;;;8.33;6.03;;;;;;;;;;5013384;28;20461;-51
2022/03/08 09:39:13;;;;;;;6.57;5.07;;;;;;;;;;5013232;28;20444;-51
2022/03/08 09:41:40;;;;;;;5.87;5.37;;;;;;;;;;5012526;28;20398;-50
2022/03/08 09:44:07;;;;;;;8.70;5.27;;;;;;;;;;5013936;28;20431;-50
2022/03/08 09:46:33;;;;;;;5.23;4.73;;;;;;;;;;5012993;28;20386;-50
2022/03/08 09:49:00;;;;;;;8.70;7.80;;;;;;;;;;5013593;28;20402;-52
2022/03/08 09:51:26;;;;;;;9.53;5.73;;;;;;;;;;5013071;28;20423;-49
2022/03/08 09:53:56;;;;;;;6.50;5.53;;;;;;;;;;5013439;28;20888;-51
2022/03/08 09:56:22;;;;;;;6.20;5.57;;;;;;;;;;5012163;28;20432;-52
2022/03/08 09:58:48;;;;;;;5.67;5.07;;;;;;;;;;5013159;28;20480;-52
2022/03/08 10:01:15;;;;;;;5.67;5.17;;;;;;;;;;5013063;28;20458;-51
2022/03/08 10:03:43;;;;;;;9.13;5.37;;;;;;;;;;5013183;28;20400;-51
2022/03/08 10:06:09;;;;;;;5.50;4.47;;;;;;;;;;4995908;28;20407;-52
2022/03/08 10:08:36;;;;;;;6.60;4.97;;;;;;;;;;5013021;28;20514;-50
2022/03/08 10:11:03;;;;;;;7.13;4.97;;;;;;;;;;5012947;28;20454;-52
2022/03/08 10:13:38;;;;;;;8.20;5.53;;;;;;;;;;5013258;28;20415;-52
2022/03/08 10:16:12;;;;;;;5.20;4.70;;;;;;;;;;5013039;28;20404;-52
2022/03/08 10:18:40;;;;;;;6.30;5.70;;;;;;;;;;5012917;28;20903;-52
2022/03/08 10:21:24;;;;;;;8.47;5.80;;;;;;;;;;5012781;28;20425;-52
2022/03/08 10:23:50;;;;;;;5.40;4.93;;;;;;;;;;5012847;28;20406;-52
2022/03/08 10:26:16;;;;;;;7.53;5.50;;;;;;;;;;5011506;28;20397;-52
2022/03/08 10:28:47;;;;;;;6.10;4.83;;;;;;;;;;5012739;28;20528;-52
2022/03/08 10:31:14;;;;;;;6.43;5.80;;;;;;;;;;5012963;28;20404;-53
2022/03/08 10:33:40;;;;;;;6.33;5.73;;;;;;;;;;5012738;28;20433;-53
2022/03/08 10:36:13;;;;;;;5.27;4.80;;;;;;;;;;5012872;28;20406;-53
2022/03/08 10:38:40;;;;;;;6.60;5.13;;;;;;;;;;5012751;28;20390;-51
2022/03/08 10:41:19;;;;;;;11.87;5.33;;;;;;;;;;5012410;28;20836;-52
2022/03/08 10:43:49;;;;;;;7.90;6.10;;;;;;;;;;5012577;28;20418;-52
2022/03/08 10:46:18;;;;;;;8.93;5.73;;;;;;;;;;5012593;28;20407;-53
2022/03/08 10:48:47;;;;;;;8.93;5.30;;;;;;;;;;5012465;28;20484;-52
2022/03/08 10:51:14;;;;;;;8.50;5.67;;;;;;;;;;5012294;28;20796;-52
2022/03/08 10:53:40;;;;;;;7.13;5.40;;;;;;;;;;5012325;28;20410;-53
2022/03/08 10:56:08;;;;;;;6.80;6.10;;;;;;;;;;5012157;28;20416;-52
2022/03/08 10:58:34;;;;;;;5.87;5.23;;;;;;;;;;5011722;28;20914;-53
2022/03/08 11:01:01;;;;;;;5.83;5.00;;;;;;;;;;5011923;28;20431;-53
2022/03/08 11:03:28;;;;;;;6.17;4.90;;;;;;;;;;5012097;28;20817;-52
2022/03/08 11:05:55;;;;;;;5.10;4.60;;;;;;;;;;5012095;28;20403;-51
2022/03/08 11:08:21;;;;;;;6.33;4.50;;;;;;;;;;5012125;28;20938;-53
2022/03/08 11:10:47;;;;;;;7.43;5.27;;;;;;;;;;5011543;28;20501;-50
2022/03/08 11:13:14;;;;;;;7.80;5.37;;;;;;;;;;5011564;28;20404;-53
2022/03/08 11:15:43;;;;;;;4.67;4.13;;;;;;;;;;5011762;28;20434;-52
2022/03/08 11:18:10;;;;;;;4.60;4.20;;;;;;;;;;5011232;28;20496;-52
2022/03/08 11:20:36;;;;;;;4.63;4.20;;;;;;;;;;5011998;28;20779;-53
2022/03/08 11:23:03;;;;;;;5.03;4.53;;;;;;;;;;5011763;28;20416;-51
2022/03/08 11:25:31;;;;;;;5.13;3.97;;;;;;;;;;5012107;28;20403;-53
2022/03/08 11:27:57;;;;;;;5.33;4.83;;;;;;;;;;5011989;28;20590;-51
2022/03/08 11:30:25;;;;;;;4.50;4.13;;;;;;;;;;5011707;28;20431;-52
2022/03/08 11:32:51;;;;;;;4.33;4.03;;;;;;;;;;5011919;28;20391;-53
2022/03/08 11:35:23;;;;;;;4.33;3.83;;;;;;;;;;5011997;28;20888;-53
2022/03/08 11:37:50;;;;;;;5.10;4.13;;;;;;;;;;5012062;28;20499;-52
2022/03/08 11:40:20;;;;;;;5.10;4.20;;;;;;;;;;5011649;28;20453;-53
2022/03/08 11:42:47;;;;;;;3.73;3.43;;;;;;;;;;5011795;28;20403;-53
2022/03/08 11:45:17;;;;;;;4.10;3.70;;;;;;;;;;5011905;28;20410;-51
2022/03/08 11:48:04;;;;;;;4.63;4.13;;;;;;;;;;5012069;28;20453;-52
2022/03/08 11:50:35;;;;;;;5.27;3.97;;;;;;;;;;5011579;28;20530;-53
2022/03/08 11:53:06;;;;;;;7.77;3.70;;;;;;;;;;5011706;28;20427;-52
2022/03/08 11:55:37;;;;;;;4.00;3.60;;;;;;;;;;5011971;28;20414;-51
2022/03/08 11:58:06;;;;;;;4.53;4.03;;;;;;;;;;5011947;28;20488;-53
2022/03/08 12:00:34;;;;;;;4.10;3.60;;;;;;;;;;5011421;28;20458;-53
2022/03/08 12:03:02;;;;;;;3.60;3.30;;;;;;;;;;5011402;28;20431;-51
2022/03/08 12:05:39;;;;;;;3.40;3.10;;;;;;;;;;5010873;28;21203;-53
2022/03/08 12:08:24;;;;;;;3.97;3.67;;;;;;;;;;5012011;28;20458;-53
2022/03/08 12:10:53;;;;;;;4.87;3.40;;;;;;;;;;5015256;28;20459;-53
2022/03/08 12:13:23;;;;;;;4.73;3.63;;;;;;;;;;5015346;28;20460;-52
2022/03/08 12:16:14;;;;;;;8.60;4.30;;;;;;;;;;5016183;28;20406;-51
2022/03/08 12:18:41;;;;;;;4.40;4.00;;;;;;;;;;5015304;28;20428;-52
2022/03/08 12:21:16;;;;;;;5.20;3.43;;;;;;;;;;5015556;28;20435;-48
2022/03/08 12:23:51;;;;;;;4.20;3.90;;;;;;;;;;5015154;28;20952;-48
2022/03/08 12:26:31;;;;;;;4.40;4.00;;;;;;;;;;5015426;28;20409;-47
2022/03/08 12:29:10;;;;;;;3.27;2.97;;;;;;;;;;5015354;28;20405;-48
2022/03/08 12:31:54;;;;;;;4.60;3.60;;;;;;;;;;5015121;28;20421;-52
2022/03/08 12:34:35;;;;;;;4.80;4.37;;;;;;;;;;5015968;28;20486;-51
2022/03/08 12:37:02;;;;;;;4.77;3.37;;;;;;;;;;5015879;28;20402;-48
2022/03/08 12:39:47;;;;;;;5.27;3.80;;;;;;;;;;5014903;28;20398;-48
2022/03/08 12:42:20;;;;;;;4.10;3.70;;;;;;;;;;5014722;28;20891;-48
2022/03/08 12:45:09;;;;;;;4.80;3.70;;;;;;;;;;5015107;28;20406;-48
2022/03/08 12:47:37;;;;;;;3.90;3.50;;;;;;;;;;5004878;28;20467;-48
2022/03/08 12:50:14;;;;;;;4.37;4.07;;;;;;;;;;5014382;28;20465;-49
2022/03/08 12:52:44;;;;;;;3.80;3.50;;;;;;;;;;5006729;28;20403;-48
2022/03/08 12:55:12;;;;;;;6.30;4.00;;;;;;;;;;5016292;28;20419;-48
2022/03/08 12:57:53;;;;;;;8.83;4.13;;;;;;;;;;5014905;28;20414;-48
2022/03/08 13:00:38;;;;;;;3.90;3.50;;;;;;;;;;5014363;28;20582;-48
2022/03/08 13:03:04;;;;;;;5.73;3.87;;;;;;;;;;5014285;28;20441;-50
2022/03/08 13:05:32;;;;;;;5.97;3.67;;;;;;;;;;5004812;28;20423;-53
2022/03/08 13:07:58;;;;;;;4.60;3.87;;;;;;;;;;5014216;28;20458;-52
2022/03/08 13:10:25;;;;;;;4.70;4.30;;;;;;;;;;5014115;28;20427;-53
2022/03/08 13:12:52;;;;;;;5.40;4.10;;;;;;;;;;5013742;28;20461;-50
2022/03/08 13:15:21;;;;;;;5.17;3.40;;;;;;;;;;5015205;28;20407;-52
2022/03/08 13:17:49;;;;;;;12.30;4.70;;;;;;;;;;5013882;28;20407;-50
2022/03/08 13:20:24;;;;;;;4.40;4.00;;;;;;;;;;5013255;28;20442;-49
2022/03/08 13:22:50;;;;;;;3.80;3.50;;;;;;;;;;5012500;28;20453;-49
2022/03/08 13:25:16;;;;;;;3.90;3.53;;;;;;;;;;5012230;28;20443;-49
2022/03/08 13:27:52;;;;;;;5.60;3.87;;;;;;;;;;5013728;28;20479;-50
2022/03/08 13:30:22;;;;;;;4.13;3.73;;;;;;;;;;5012823;28;20423;-50
2022/03/08 13:32:49;;;;;;;8.20;4.00;;;;;;;;;;5013764;28;20449;-49
2022/03/08 13:35:16;;;;;;;5.03;4.53;;;;;;;;;;5015647;28;20502;-51
2022/03/08 13:37:48;;;;;;;4.60;4.20;;;;;;;;;;5013859;28;20469;-50
2022/03/08 13:40:27;;;;;;;7.10;4.50;;;;;;;;;;5013400;28;20865;-50
2022/03/08 13:42:56;;;;;;;5.33;4.13;;;;;;;;;;5013219;28;20959;-50
2022/03/08 13:45:22;;;;;;;4.13;3.60;;;;;;;;;;5013780;28;20403;-49
2022/03/08 13:47:52;;;;;;;4.13;3.73;;;;;;;;;;5012813;28;20520;-49
2022/03/08 13:50:19;;;;;;;3.63;3.30;;;;;;;;;;4995566;28;20527;-49
2022/03/08 13:53:03;;;;;;;4.13;3.77;;;;;;;;;;5013373;28;20399;-50
2022/03/08 13:55:30;;;;;;;3.90;3.50;;;;;;;;;;5013160;28;20851;-48
2022/03/08 13:57:57;;;;;;;4.30;4.00;;;;;;;;;;5013331;28;20487;-48
2022/03/08 14:00:28;;;;;;;4.20;3.80;;;;;;;;;;5013002;28;20431;-48
2022/03/08 14:02:55;;;;;;;4.20;3.80;;;;;;;;;;5013217;28;20422;-48
2022/03/08 14:05:22;;;;;;;6.53;3.80;;;;;;;;;;5011385;28;20419;-51
2022/03/08 14:07:55;;;;;;;5.20;4.20;;;;;;;;;;5018588;28;21029;-50
2022/03/08 14:10:21;;;;;;;4.27;3.77;;;;;;;;;;5012524;28;20431;-53
2022/03/08 14:12:47;;;;;;;6.07;4.30;;;;;;;;;;5013290;28;20481;-48
2022/03/08 14:15:13;;;;;;;4.77;4.17;;;;;;;;;;5012716;28;20780;-48
2022/03/08 14:17:39;;;;;;;15.67;4.20;;;;;;;;;;5012839;28;20760;-48
2022/03/08 14:20:19;;;;;;;6.30;4.00;;;;;;;;;;5012498;28;20426;-48
2022/03/08 14:23:00;;;;;;;3.83;3.53;;;;;;;;;;5012886;28;20403;-49
2022/03/08 14:25:26;;;;;;;4.87;3.77;;;;;;;;;;5012975;28;20399;-51
2022/03/08 14:27:52;;;;;;;8.77;4.23;;;;;;;;;;5013201;28;20493;-48
2022/03/08 14:30:26;;;;;;;4.00;3.60;;;;;;;;;;5012640;28;20458;-48
2022/03/08 14:32:52;;;;;;;4.17;3.77;;;;;;;;;;5012270;28;20410;-51
2022/03/08 14:35:20;;;;;;;4.50;3.80;;;;;;;;;;5012676;28;20400;-49
2022/03/08 14:37:46;;;;;;;4.20;3.80;;;;;;;;;;5012718;28;20407;-48
2022/03/08 14:40:12;;;;;;;4.10;3.80;;;;;;;;;;5012212;28;20427;-48
2022/03/08 14:42:40;;;;;;;4.40;4.00;;;;;;;;;;5012390;28;20410;-51